Bookmark and Share
Track history (hours):
 

Celebrity Century

Last reported at 2014-Apr-20 04:10 UTC. Time now 2014-Apr-20 08:47 UTC.
Position N 33°50' W 118°44'.

Length 250 m; draft 8.2 m.

Type: Ship. MMSI: 249054000.

NotesDate/timePositionNaut miles runAvg speedWind from/ knotsBaromVisibWave heightAir tempDewpointWater temp
2014-Apr-20 04:10N 33°50' W 118°44'1313.3
2014-Apr-20 03:12N 33°43' W 118°31'626.7
2014-Apr-20 03:00N 33°42' W 118°24'5 8.7 250 / 91022.010.8 0.519.015.914.0
2014-Apr-20 02:27N 33°38' W 118°21'6 7.1
2014-Apr-20 01:33N 33°43' W 118°15'1 1.1
2014-Apr-20 00:23N 33°43' W 118°17'0 0.0
2014-Apr-19 23:32N 33°43' W 118°17'0 0.0
2014-Apr-19 22:10N 33°43' W 118°17'0 0.0
2014-Apr-19 12:15N 33°43' W 118°16'18 9.1
2014-Apr-19 10:16N 33°27' W 118°06'811.4
2014-Apr-19 09:33N 33°19' W 118°02'1111.2
2014-Apr-19 08:33N 33°10' W 117°56'1111.1
2014-Apr-19 07:33N 33°00' W 117°48'1312.5
2014-Apr-19 06:33N 32°49' W 117°41'1312.9
2014-Apr-19 05:33N 32°38' W 117°34'1414.2
2014-Apr-19 04:33N 32°26' W 117°25'3714.4
2014-Apr-19 02:00N 32°00' W 116°54'20 1.3 330 / 61018.010.8 0.514.010.515.0
2014-Apr-18 10:23N 32°06' W 117°17'1012.3
2014-Apr-18 09:33N 32°12' W 117°26'2 3.6
2014-Apr-18 09:00N 32°12' W 117°24'1431.4 090 / 31019.0 2.0 17.0
2014-Apr-18 08:33N 32°21' W 117°36'1212.4
2014-Apr-18 07:33N 32°32' W 117°43'1312.7
2014-Apr-18 06:33N 32°44' W 117°48'1312.6
2014-Apr-18 05:33N 32°55' W 117°54'1111.2
2014-Apr-18 04:33N 33°05' W 117°60'1111.1
2014-Apr-18 03:33N 33°13' W 118°09'1111.3
2014-Apr-18 02:33N 33°21' W 118°19'0 0.1
2014-Apr-18 01:32N 33°21' W 118°19'0 0.0
2014-Apr-18 00:31N 33°21' W 118°19'0 0.0
2014-Apr-17 23:28N 33°21' W 118°19'0 0.0
2014-Apr-17 22:27N 33°21' W 118°19'0 0.1
2014-Apr-17 21:33N 33°21' W 118°19'0 0.0
2014-Apr-17 20:23N 33°21' W 118°19'0 0.0
2014-Apr-17 19:32N 33°21' W 118°19'0 0.2
2014-Apr-17 18:34N 33°21' W 118°19'1414.4
2014-Apr-17 17:33N 33°35' W 118°22'1616.4
2014-Apr-17 16:33N 33°45' W 118°38'1717.1
2014-Apr-17 15:33N 33°53' W 118°56'1717.1
2014-Apr-17 14:33N 34°01' W 119°14'2415.0
2014-Apr-17 13:00N 34°06' W 119°42'6215.5 140 / 81017.010.8 1.014.010.514.0
2014-Apr-17 09:00N 34°24' W 120°54'2819.6 320 / 101018.0 3.0 14.0
2014-Apr-17 07:33N 34°43' W 121°20'1716.5
2014-Apr-17 06:33N 34°57' W 121°31'1716.6
2014-Apr-17 05:33N 35°11' W 121°41'1616.3
2014-Apr-17 04:33N 35°25' W 121°51'1817.5
2014-Apr-17 03:33N 35°41' W 121°59'1716.8
2014-Apr-17 02:33N 35°57' W 122°05'916.1
2014-Apr-17 02:00N 36°06' W 122°06'817.7 330 / 241018.010.8 2.514.014.014.0
2014-Apr-17 01:33N 36°14' W 122°08'1616.1
2014-Apr-17 00:33N 36°30' W 122°06'1413.6
2014-Apr-16 23:33N 36°39' W 121°54'2 1.9
2014-Apr-16 22:27N 36°37' W 121°53'0 0.0
2014-Apr-16 21:29N 36°37' W 121°53'0 0.1
2014-Apr-16 20:11N 36°37' W 121°53'0 0.1
2014-Apr-16 19:29N 36°37' W 121°53'0 0.0
2014-Apr-16 18:19N 36°37' W 121°53'0 0.0
2014-Apr-16 17:22N 36°37' W 121°53'0 0.0
2014-Apr-16 16:30N 36°37' W 121°53'0 0.0
2014-Apr-16 15:30N 36°37' W 121°53'0 0.0
2014-Apr-16 14:29N 36°37' W 121°53'0 0.0
2014-Apr-16 13:33N 36°37' W 121°53'9 9.2
2014-Apr-16 12:33N 36°40' W 122°04'713.1
2014-Apr-16 12:00N 36°36' W 122°12'1023.0 330 / 251020.010.8 1.514.010.514.0
2014-Apr-16 11:33N 36°40' W 122°24'1514.8
2014-Apr-16 10:33N 36°46' W 122°41'611.3
2014-Apr-16 10:00N 36°48' W 122°48'1023.1 320 / 201020.0 3.5 14.0
2014-Apr-16 09:33N 36°57' W 122°55'5 9.7
2014-Apr-16 09:00N 37°00' W 123°00'1023.1 320 / 321020.0 3.5 14.0
2014-Apr-16 08:33N 37°07' W 123°09'8 7.8
2014-Apr-16 07:33N 37°15' W 123°11'1312.8
2014-Apr-16 06:33N 37°28' W 123°09'1212.3
2014-Apr-16 05:33N 37°37' W 122°59'1313.2
2014-Apr-16 04:33N 37°44' W 122°45'1212.3
2014-Apr-16 03:33N 37°49' W 122°30'5 4.7
2014-Apr-16 02:32N 37°48' W 122°24'0 0.0
2014-Apr-16 01:32N 37°48' W 122°24'0 0.0
2014-Apr-16 00:31N 37°48' W 122°24'0 0.0
2014-Apr-15 23:31N 37°48' W 122°24'0 0.0
2014-Apr-15 22:33N 37°48' W 122°24'0 0.0
2014-Apr-15 21:33N 37°48' W 122°24'0 0.0
2014-Apr-15 20:33N 37°48' W 122°24'0 0.0
2014-Apr-15 19:32N 37°48' W 122°24'0 0.0
2014-Apr-15 18:32N 37°48' W 122°24'0 0.0
2014-Apr-15 17:31N 37°48' W 122°24'0 0.0
2014-Apr-15 16:31N 37°48' W 122°24'0 0.0
2014-Apr-15 15:34N 37°48' W 122°24'0 0.0
2014-Apr-15 14:33N 37°48' W 122°24'0 0.0
2014-Apr-15 12:33N 37°48' W 122°24'0 0.0
2014-Apr-15 11:29N 37°48' W 122°24'0 0.0
2014-Apr-15 10:32N 37°48' W 122°24'0 0.0
2014-Apr-15 09:31N 37°48' W 122°24'0 0.0
2014-Apr-15 08:34N 37°48' W 122°24'0 0.0
2014-Apr-15 07:33N 37°48' W 122°24'0 0.0
2014-Apr-15 06:33N 37°48' W 122°24'0 0.0
2014-Apr-15 05:33N 37°48' W 122°24'0 0.0
2014-Apr-15 03:32N 37°48' W 122°24'0 0.0
2014-Apr-15 02:31N 37°48' W 122°24'0 0.0
2014-Apr-15 01:34N 37°48' W 122°24'0 0.0
2014-Apr-15 00:33N 37°48' W 122°24'0 0.0
2014-Apr-14 23:33N 37°48' W 122°24'0 0.0
2014-Apr-14 22:32N 37°48' W 122°24'0 0.0
2014-Apr-14 21:32N 37°48' W 122°24'0 0.0
2014-Apr-14 20:32N 37°48' W 122°24'0 0.0
2014-Apr-14 19:31N 37°48' W 122°24'0 0.0
2014-Apr-14 18:34N 37°48' W 122°24'0 0.5
2014-Apr-14 17:34N 37°49' W 122°25'1211.8
2014-Apr-14 16:33N 37°45' W 122°39'1615.6
2014-Apr-14 15:33N 37°30' W 122°40'1817.8
2014-Apr-14 14:33N 37°12' W 122°39'1817.7
2014-Apr-14 13:33N 36°54' W 122°38'3517.8
2014-Apr-14 11:33N 36°20' W 122°30'1616.3
2014-Apr-14 10:33N 36°04' W 122°23'1616.1
2014-Apr-14 09:33N 35°52' W 122°11'2136.4
2014-Apr-14 09:00N 35°36' W 121°54'410.1 360 / 151022.0 2.0 15.0
2014-Apr-14 08:33N 35°38' W 121°59'1616.3
2014-Apr-14 07:33N 35°25' W 121°47'1616.4
2014-Apr-14 06:33N 35°12' W 121°35'1716.8
2014-Apr-14 05:33N 34°58' W 121°23'5923.1
2014-Apr-14 03:00N 34°18' W 120°30'51 3.0 330 / 251021.010.8 1.516.012.615.0
2014-Apr-13 10:00N 34°06' W 119°30'55 6.9 270 / 181021.0 1.0 18.0
2014-Apr-13 02:00N 33°42' W 118°30'10 6.3 140 / 81019.010.8 0.517.013.715.0
2014-Apr-13 00:29N 33°38' W 118°20'713.5
2014-Apr-13 00:00N 33°36' W 118°12'15 1.1 250 / 181021.010.8 0.517.013.715.0
2014-Apr-12 10:10N 33°22' W 118°04'812.6
2014-Apr-12 09:34N 33°16' W 117°60'1312.7
2014-Apr-12 08:34N 33°05' W 117°52'1424.0
2014-Apr-12 08:00N 32°54' W 117°42'1 3.0 230 / 81020.0 1.0 18.0
2014-Apr-12 07:33N 32°55' W 117°43'1212.2
2014-Apr-12 06:34N 32°44' W 117°37'1212.1
2014-Apr-12 05:34N 32°33' W 117°30'1312.9
2014-Apr-12 04:33N 32°22' W 117°22'1313.0
2014-Apr-12 03:33N 32°12' W 117°12'1312.8
2014-Apr-12 02:33N 32°04' W 117°01'1312.5
2014-Apr-12 01:33N 31°55' W 116°50'2 0.1
2014-Apr-11 12:33N 31°53' W 116°50'1010.3
2014-Apr-11 11:33N 31°58' W 117°01'10 9.8
2014-Apr-11 10:33N 32°03' W 117°11'10 9.6
2014-Apr-11 09:33N 32°08' W 117°20'1010.2
2014-Apr-11 08:33N 32°14' W 117°30'1313.0
2014-Apr-11 07:33N 32°25' W 117°39'1413.5
2014-Apr-11 06:33N 32°38' W 117°44'1313.3
2014-Apr-11 05:33N 32°50' W 117°50'1313.3
2014-Apr-11 04:33N 33°02' W 117°57'1313.1
2014-Apr-11 03:33N 33°12' W 118°07'1312.7
2014-Apr-11 02:33N 33°21' W 118°18'1 0.6
2014-Apr-11 01:33N 33°21' W 118°19'0 0.1
2014-Apr-11 00:33N 33°21' W 118°19'0 0.0
2014-Apr-10 23:29N 33°21' W 118°19'0 0.1
2014-Apr-10 22:29N 33°21' W 118°19'0 0.0
2014-Apr-10 21:31N 33°21' W 118°19'0 0.1
2014-Apr-10 20:28N 33°21' W 118°19'0 0.0
2014-Apr-10 19:33N 33°21' W 118°19'0 0.0
2014-Apr-10 18:33N 33°21' W 118°19'8 8.3
2014-Apr-10 17:33N 33°29' W 118°20'1616.0
2014-Apr-10 16:33N 33°42' W 118°33'1717.1
2014-Apr-10 15:33N 33°50' W 118°50'1717.0
2014-Apr-10 14:33N 33°59' W 119°08'1716.9
2014-Apr-10 13:33N 34°05' W 119°27'1717.1
2014-Apr-10 12:33N 34°10' W 119°47'1716.6
2014-Apr-10 11:33N 34°14' W 120°06'1616.5
2014-Apr-10 10:34N 34°18' W 120°26'1717.0
2014-Apr-10 09:33N 34°23' W 120°46'1221.3
2014-Apr-10 09:00N 34°24' W 121°00'614.2 360 / 151022.0 2.0 15.0
2014-Apr-10 08:33N 34°28' W 121°05'1716.8
2014-Apr-10 07:33N 34°41' W 121°18'1717.1
2014-Apr-10 06:33N 34°56' W 121°29'1716.9
2014-Apr-10 05:33N 35°10' W 121°41'1717.2
2014-Apr-10 04:33N 35°24' W 121°52'  

Dump ship's entire track history

sailing weather and tide predictions

Celebrity Century — 9HJI9 — position and weather